Terminal Aerodrome Forecast
Issued by NWS

Home | Current Version | Previous Version | Text Only | Print | Product List | Glossary On
Versions: 1 2 3 4 5 6 7 8 9 10 11 12 13 14 15 16
000
FTUS44 KLUB 221900 AAB
TAFCDS
TAF AMD
KCDS 221928Z 2219/2318 20008KT 5SM -SHRA BKN030 OVC050
     FM222000 18011KT P6SM BKN060 BKN100
     FM230200 15005KT P6SM BKN060
     FM231400 19008KT P6SM FEW060=

USA.gov is the U.S. government's official web portal to all federal, state and local government web resources and services.